Time;durP1;ratioP1;P1;durP2;ratioP2;P2;SDS_P1;SDS_P2;PMS_P1;PMS_P2;Temp;Humidity;BMP_temperature;BMP_pressure;BME280_temperature;BME280_humidity;BME280_pressure;Samples;Min_cycle;Max_cycle;Signal;HPM_P1;HPM_P2
2023/07/17 00:01:25;;;;;;;8.30;7.40;;;;;;;21.06;76.93;98820.76;225837;1278;22533;-76
2023/07/17 00:06:34;;;;;;;8.10;7.30;;;;;;;21.03;77.05;98814.13;225816;1278;22539;-74
2023/07/17 00:11:37;;;;;;;8.70;7.40;;;;;;;21.00;77.19;98821.61;225930;1276;24851;-74
2023/07/17 00:16:41;;;;;;;8.60;7.70;;;;;;;20.97;77.34;98835.16;226011;1275;22630;-74
2023/07/17 00:21:47;;;;;;;8.60;7.80;;;;;;;20.97;77.45;98833.51;225753;1280;22540;-74
2023/07/17 00:26:49;;;;;;;8.90;8.00;;;;;;;20.98;77.65;98824.81;225871;1275;22661;-75
2023/07/17 00:31:53;;;;;;;9.30;8.50;;;;;;;20.98;77.77;98831.20;225732;1280;22570;-75
2023/07/17 00:37:24;;;;;;;8.60;7.60;;;;;;;20.99;78.06;98839.16;225946;1277;22557;-74
2023/07/17 00:42:30;;;;;;;8.20;7.00;;;;;;;20.99;78.34;98847.70;225913;1277;22549;-75
2023/07/17 00:47:45;;;;;;;8.00;6.70;;;;;;;21.00;78.21;98846.37;225637;1280;22680;-75
2023/07/17 00:52:48;;;;;;;6.90;6.10;;;;;;;20.99;78.18;98839.97;225705;1278;22539;-74
2023/07/17 00:57:58;;;;;;;7.70;7.00;;;;;;;20.99;78.38;98837.02;225945;1280;22539;-74
2023/07/17 01:03:36;;;;;;;7.80;7.10;;;;;;;20.96;78.32;98839.49;225953;1277;22549;-75
2023/07/17 01:08:49;;;;;;;;;;;;;;;;;;;;;
2023/07/17 01:14:35;;;;;;;7.80;7.10;;;;;;;20.91;78.52;98825.40;225874;1278;22566;-75
2023/07/17 01:20:19;;;;;;;9.10;8.20;;;;;;;20.93;78.81;98825.30;225985;1278;22534;-75
2023/07/17 01:25:36;;;;;;;10.40;9.40;;;;;;;20.95;78.82;98823.48;225854;1280;21742;-75
2023/07/17 01:31:50;;;;;;;12.40;9.90;;;;;;;20.99;78.99;98811.06;225802;1280;22556;-75
2023/07/17 01:43:43;;;;;;;12.10;10.80;;;;;;;21.02;79.26;98800.40;225749;1280;25268;-75
2023/07/17 01:49:13;;;;;;;;;;;;;;;;;;;;;
2023/07/17 01:55:04;;;;;;;;;;;;;;;;;;;;;
2023/07/17 02:00:32;;;;;;;11.80;10.70;;;;;;;21.05;79.51;98790.88;225929;1280;25772;-75
2023/07/17 02:05:55;;;;;;;11.30;10.00;;;;;;;21.06;79.42;98800.88;225924;1280;22570;-75
2023/07/17 02:11:11;;;;;;;11.90;9.70;;;;;;;21.07;79.49;98802.28;225928;1276;22546;-75
2023/07/17 02:16:21;;;;;;;12.30;10.40;;;;;;;21.07;79.43;98810.87;225894;1276;25691;-74
2023/07/17 02:21:31;;;;;;;14.90;10.50;;;;;;;21.09;79.53;98821.63;225941;1276;22580;-76
2023/07/17 02:27:18;;;;;;;12.00;10.00;;;;;;;21.12;79.57;98833.86;225774;1280;24273;-75
2023/07/17 02:38:17;;;;;;;11.50;10.30;;;;;;;21.19;79.65;98822.11;225929;1276;23005;-75
2023/07/17 02:44:23;;;;;;;11.60;9.70;;;;;;;21.20;79.66;98826.02;225953;1280;22593;-75
2023/07/17 02:50:00;;;;;;;12.20;10.50;;;;;;;21.23;79.78;98830.60;225954;1280;22536;-75
2023/07/17 02:56:02;;;;;;;11.30;10.10;;;;;;;21.26;79.81;98829.54;225827;1280;22527;-75
2023/07/17 03:01:38;;;;;;;9.90;9.10;;;;;;;21.26;79.70;98833.96;225922;1265;22606;-75
2023/07/17 03:07:04;;;;;;;9.20;8.30;;;;;;;21.26;79.77;98839.98;225901;1276;22568;-75
2023/07/17 03:13:07;;;;;;;9.60;8.70;;;;;;;21.29;79.92;98861.08;225899;1280;22539;-75
2023/07/17 03:18:09;;;;;;;12.20;10.60;;;;;;;21.32;80.04;98869.98;225927;1276;22684;-75
2023/07/17 03:23:14;;;;;;;11.20;10.10;;;;;;;21.38;80.10;98878.58;225774;1279;22539;-76
2023/07/17 03:28:37;;;;;;;;;;;;;;;;;;;;;
2023/07/17 03:34:26;;;;;;;12.00;10.00;;;;;;;21.41;80.18;98893.66;225988;1274;22531;-75
2023/07/17 03:46:06;;;;;;;;;;;;;;;;;;;;;
2023/07/17 03:51:38;;;;;;;11.20;10.00;;;;;;;21.39;80.59;98892.66;225948;1280;22763;-75
2023/07/17 03:56:53;;;;;;;11.10;10.00;;;;;;;21.40;80.76;98898.91;225915;1280;24239;-75
2023/07/17 04:02:18;;;;;;;10.50;9.20;;;;;;;21.41;80.80;98898.81;225812;1280;22548;-75
2023/07/17 04:07:46;;;;;;;13.00;9.70;;;;;;;21.39;80.88;98892.71;225805;1278;24373;-75
2023/07/17 04:12:52;;;;;;;11.40;9.90;;;;;;;21.37;81.17;98887.12;225912;1280;23046;-75
2023/07/17 04:18:09;;;;;;;11.90;10.20;;;;;;;21.34;81.46;98897.15;225879;1278;22542;-75
2023/07/17 04:23:17;;;;;;;11.40;9.40;;;;;;;21.31;81.59;98913.79;225780;1280;23006;-75
2023/07/17 04:28:23;;;;;;;10.40;9.20;;;;;;;21.27;81.71;98953.25;225963;1276;22539;-75
2023/07/17 04:39:41;;;;;;;15.30;7.50;;;;;;;20.64;82.12;99085.00;225878;1280;22527;-77
2023/07/17 04:45:11;;;;;;;;;;;;;;;;;;;;;
2023/07/17 04:50:15;;;;;;;9.60;5.70;;;;;;;19.52;83.58;99038.86;225841;1280;22570;-80
2023/07/17 04:55:21;;;;;;;7.00;5.00;;;;;;;19.06;84.19;99030.02;225758;1280;22543;-78
2023/07/17 05:00:33;;;;;;;8.60;5.80;;;;;;;18.76;84.94;99035.20;225828;1279;22548;-78
2023/07/17 05:05:48;;;;;;;5.70;5.10;;;;;;;18.60;85.78;99042.96;225962;1280;22536;-78
2023/07/17 05:11:32;;;;;;;;;;;;;;;;;;;;;
2023/07/17 05:17:30;;;;;;;;;;;;;;;;;;;;;
2023/07/17 05:22:39;;;;;;;6.50;5.90;;;;;;;18.50;86.97;99009.55;225999;1278;22543;-79
2023/07/17 05:27:59;;;;;;;7.80;6.90;;;;;;;18.55;87.14;98980.59;225738;1280;22603;-79
2023/07/17 05:33:10;;;;;;;8.10;7.20;;;;;;;18.60;87.47;98950.91;225907;1280;22568;-79
2023/07/17 05:38:40;;;;;;;8.90;8.00;;;;;;;18.65;87.79;98937.05;225813;1280;22557;-79
2023/07/17 05:44:14;;;;;;;12.80;7.40;;;;;;;18.74;87.94;98903.70;225920;1280;22548;-77
2023/07/17 05:49:42;;;;;;;;;;;;;;;;;;;;;
2023/07/17 05:55:32;;;;;;;;;;;;;;;19.26;89.08;98880.59;225778;1261;22575;-78
2023/07/17 06:00:49;;;;;;;;;;;;;;;;;;;;;
2023/07/17 06:06:29;;;;;;;7.70;7.00;;;;;;;19.99;89.46;98869.55;225657;1267;22535;-77
2023/07/17 06:11:35;;;;;;;7.20;6.60;;;;;;;20.43;89.13;98891.64;225567;1260;22552;-78
2023/07/17 06:16:40;;;;;;;8.20;7.40;;;;;;;20.69;88.62;98893.48;225416;1262;22530;-77
2023/07/17 06:21:54;;;;;;;8.50;7.60;;;;;;;20.87;88.13;98914.47;224960;1262;284924;-78
2023/07/17 06:27:10;;;;;;;7.90;7.10;;;;;;;20.97;87.73;98914.85;225098;1262;22595;-80
2023/07/17 06:32:15;;;;;;;6.70;6.10;;;;;;;21.11;87.58;98923.61;225207;1280;22528;-79
2023/07/17 06:37:38;;;;;;;6.80;6.00;;;;;;;21.26;87.32;98934.23;225103;1262;22654;-78
2023/07/17 06:43:09;;;;;;;7.10;6.40;;;;;;;21.44;86.91;98930.73;225300;1275;22501;-77
2023/07/17 06:48:35;;;;;;;8.00;7.20;;;;;;;21.62;86.27;98916.10;224966;1280;24890;-75
2023/07/17 06:53:37;;;;;;;8.00;7.20;;;;;;;21.83;86.31;98928.16;225248;1272;22540;-76
2023/07/17 06:58:39;;;;;;;7.80;7.00;;;;;;;22.07;85.77;98927.87;225406;1278;22544;-76
2023/07/17 07:04:05;;;;;;;8.00;7.20;;;;;;;22.29;85.24;98931.15;225486;1260;22539;-75
2023/07/17 07:09:16;;;;;;;7.40;6.70;;;;;;;22.50;84.65;98930.25;225540;1278;25289;-75
2023/07/17 07:14:22;;;;;;;7.30;6.60;;;;;;;22.66;84.04;98937.70;225469;1277;22540;-76
2023/07/17 07:19:35;;;;;;;7.20;6.50;;;;;;;22.84;83.88;98943.79;225475;1278;22605;-75
2023/07/17 07:24:41;;;;;;;7.90;7.20;;;;;;;22.98;83.37;98931.83;225348;1259;22703;-75
2023/07/17 07:29:46;;;;;;;7.30;6.60;;;;;;;23.07;82.80;98939.06;225125;1278;26030;-74
2023/07/17 07:34:48;;;;;;;7.50;6.90;;;;;;;23.18;82.42;98946.05;225026;1280;22702;-74
2023/07/17 07:39:50;;;;;;;7.10;6.50;;;;;;;23.31;82.15;98954.34;225234;1278;22580;-74
2023/07/17 07:44:52;;;;;;;7.70;6.90;;;;;;;23.45;81.77;98964.30;225456;1277;22556;-74
2023/07/17 07:49:54;;;;;;;7.50;6.80;;;;;;;23.58;81.57;98961.76;225548;1278;22588;-71
2023/07/17 07:55:03;;;;;;;7.40;6.80;;;;;;;23.75;81.03;98968.94;225561;1277;22676;-72
2023/07/17 08:00:38;;;;;;;8.40;7.60;;;;;;;23.91;80.85;98966.90;225330;1281;22637;-73
2023/07/17 08:05:40;;;;;;;8.10;7.10;;;;;;;24.12;80.42;98973.75;225075;1281;22527;-72
2023/07/17 08:11:07;;;;;;;7.60;6.90;;;;;;;24.26;80.25;98973.86;225147;1278;22563;-74
2023/07/17 08:16:32;;;;;;;7.50;6.90;;;;;;;24.39;80.00;98969.96;225523;1278;22576;-73
2023/07/17 08:21:35;;;;;;;8.50;7.90;;;;;;;24.50;79.55;98983.92;225594;1277;22556;-70
2023/07/17 08:26:51;;;;;;;7.90;7.30;;;;;;;24.64;79.53;98984.85;225552;1266;22536;-72
2023/07/17 08:31:53;;;;;;;7.80;7.20;;;;;;;24.66;78.76;98983.89;225501;1277;22577;-71
2023/07/17 08:37:20;;;;;;;8.00;7.30;;;;;;;24.48;78.03;98984.37;225147;1281;24285;-71
2023/07/17 08:42:23;;;;;;;8.20;7.50;;;;;;;24.49;78.52;98979.07;225523;1262;22668;-72
2023/07/17 08:47:26;;;;;;;8.10;7.40;;;;;;;24.82;79.06;98975.67;225333;1269;24291;-73
2023/07/17 08:52:31;;;;;;;7.70;7.00;;;;;;;25.22;78.06;98980.12;225254;1258;22535;-72
2023/07/17 08:57:56;;;;;;;6.80;6.20;;;;;;;25.59;77.36;98975.63;225478;1262;22617;-72
2023/07/17 09:02:58;;;;;;;7.90;6.20;;;;;;;25.99;76.34;98975.51;225415;1262;22545;-70
2023/07/17 09:08:01;;;;;;;8.10;6.40;;;;;;;26.34;74.64;98966.27;225480;1280;22573;-70
2023/07/17 09:13:04;;;;;;;8.60;7.00;;;;;;;26.61;74.18;98962.03;225553;1278;22602;-71
2023/07/17 09:18:06;;;;;;;6.90;6.30;;;;;;;27.04;73.46;98972.61;225402;1280;22625;-70
2023/07/17 09:23:09;;;;;;;7.40;6.70;;;;;;;27.33;72.61;98969.41;225583;1278;22568;-71
2023/07/17 09:28:11;;;;;;;7.40;6.40;;;;;;;27.54;71.76;98969.44;225629;1262;25280;-73
2023/07/17 09:33:13;;;;;;;6.70;6.10;;;;;;;27.70;71.28;98963.45;225490;1272;22549;-70
2023/07/17 09:38:15;;;;;;;5.90;5.40;;;;;;;27.87;70.62;98945.55;225471;1278;22612;-71
2023/07/17 09:43:31;;;;;;;5.40;5.00;;;;;;;27.89;69.39;98936.71;225422;1275;22628;-71
2023/07/17 09:48:37;;;;;;;5.90;5.50;;;;;;;28.08;69.26;98933.20;225278;1267;24398;-72
2023/07/17 09:53:45;;;;;;;5.50;5.10;;;;;;;28.22;68.41;98939.14;225634;1279;22633;-71
2023/07/17 09:58:49;;;;;;;5.30;4.80;;;;;;;28.23;67.58;98933.57;225535;1274;22572;-71
2023/07/17 10:03:51;;;;;;;6.00;4.70;;;;;;;28.22;67.26;98919.23;225391;1278;22566;-71
2023/07/17 10:08:56;;;;;;;5.20;4.70;;;;;;;28.29;67.52;98911.02;225282;1280;22558;-72
2023/07/17 10:13:58;;;;;;;4.70;4.30;;;;;;;28.28;66.25;98897.56;225556;1277;22563;-71
2023/07/17 10:19:01;;;;;;;4.80;4.40;;;;;;;28.09;65.70;98893.05;225438;1279;22561;-71
2023/07/17 10:24:03;;;;;;;4.90;4.50;;;;;;;27.93;66.05;98884.81;225461;1280;22646;-71
2023/07/17 10:29:05;;;;;;;6.20;5.20;;;;;;;27.84;65.99;98910.55;225534;1276;22539;-72
2023/07/17 10:34:07;;;;;;;5.80;5.30;;;;;;;27.59;66.16;98932.06;225379;1280;22561;-71
2023/07/17 10:39:16;;;;;;;5.90;5.20;;;;;;;27.31;66.92;98949.46;225325;1278;22615;-72
2023/07/17 10:44:19;;;;;;;6.70;6.00;;;;;;;26.96;67.56;98943.79;225340;1280;23429;-72
2023/07/17 10:49:22;;;;;;;7.50;6.30;;;;;;;26.56;67.98;98938.03;225455;1280;25290;-73
2023/07/17 10:54:26;;;;;;;7.00;6.30;;;;;;;26.08;68.32;98959.23;225508;1279;22557;-73
2023/07/17 10:59:30;;;;;;;6.90;6.00;;;;;;;25.75;69.32;98994.27;225577;1280;24274;-73
2023/07/17 11:04:33;;;;;;;6.20;5.50;;;;;;;25.38;69.42;98989.83;225481;1281;22551;-73
2023/07/17 11:10:03;;;;;;;6.90;6.20;;;;;;;24.98;69.97;98977.15;225581;1277;22558;-73
2023/07/17 11:15:33;;;;;;;7.60;7.00;;;;;;;24.71;71.37;98974.73;225545;1263;22545;-74
2023/07/17 11:20:39;;;;;;;11.60;10.00;;;;;;;24.51;72.65;98991.87;225322;1279;23035;-74
2023/07/17 11:26:03;;;;;;;11.80;8.80;;;;;;;24.18;73.39;98994.33;225413;1278;22542;-73
2023/07/17 11:31:51;;;;;;;11.60;9.30;;;;;;;23.81;74.25;98995.17;225367;1261;22569;-74
2023/07/17 11:38:04;;;;;;;9.20;7.60;;;;;;;23.51;74.94;99014.05;225351;1281;22539;-75
2023/07/17 11:43:15;;;;;;;9.50;7.50;;;;;;;23.24;75.45;99018.81;225142;1280;22534;-74
2023/07/17 11:48:22;;;;;;;8.60;7.70;;;;;;;23.10;76.29;99008.80;225302;1270;22601;-74
2023/07/17 11:53:34;;;;;;;9.30;7.40;;;;;;;23.02;76.78;99006.33;225281;1274;22562;-73
2023/07/17 11:59:01;;;;;;;7.20;6.60;;;;;;;22.94;77.22;99004.41;225185;1262;22575;-73
2023/07/17 12:04:25;;;;;;;8.70;6.40;;;;;;;22.89;77.53;99000.60;225357;1281;25237;-74
2023/07/17 12:09:27;;;;;;;7.80;6.90;;;;;;;22.87;77.77;98996.23;225482;1257;23154;-73
2023/07/17 12:14:44;;;;;;;7.80;7.10;;;;;;;22.80;77.89;98979.82;225403;1280;22555;-74
2023/07/17 12:19:50;;;;;;;7.10;6.10;;;;;;;22.72;78.24;98968.50;225519;1274;22601;-73
2023/07/17 12:24:57;;;;;;;8.10;6.70;;;;;;;22.65;78.23;98962.80;225446;1280;22547;-73
2023/07/17 12:29:59;;;;;;;6.80;6.20;;;;;;;22.61;78.33;98951.19;225525;1277;22626;-74
2023/07/17 12:35:22;;;;;;;7.10;6.40;;;;;;;22.57;78.52;98946.52;225452;1263;22556;-75
2023/07/17 12:40:44;;;;;;;6.60;5.70;;;;;;;22.59;78.68;98953.66;225515;1278;22562;-74
2023/07/17 12:46:09;;;;;;;5.80;5.30;;;;;;;22.61;78.47;98975.12;225525;1274;23338;-71
2023/07/17 12:51:21;;;;;;;6.60;5.90;;;;;;;22.66;78.70;98977.52;225555;1276;25233;-73
2023/07/17 12:57:09;;;;;;;6.10;5.50;;;;;;;22.83;78.61;98983.07;225567;1257;22637;-72
2023/07/17 13:03:02;;;;;;;6.20;5.70;;;;;;;22.98;78.36;98973.55;225496;1257;22612;-73
2023/07/17 13:08:48;;;;;;;6.80;6.20;;;;;;;23.05;78.29;98969.14;225549;1274;24402;-72
2023/07/17 13:13:56;;;;;;;7.50;6.80;;;;;;;23.13;78.30;98968.09;225476;1262;22733;-74
2023/07/17 13:19:18;;;;;;;8.40;7.10;;;;;;;23.29;78.32;98949.59;225597;1276;22682;-73
2023/07/17 13:24:45;;;;;;;9.60;8.60;;;;;;;23.49;77.86;98938.37;225329;1276;22596;-73
2023/07/17 13:29:48;;;;;;;9.30;8.40;;;;;;;23.64;77.34;98924.46;224841;1262;22555;-76
2023/07/17 13:35:09;;;;;;;8.90;8.10;;;;;;;23.65;77.22;98910.39;224820;1275;22555;-73
2023/07/17 13:40:53;;;;;;;9.30;8.30;;;;;;;23.73;77.31;98898.35;224860;1273;22982;-78
2023/07/17 13:46:09;;;;;;;9.60;8.70;;;;;;;24.00;77.22;98893.20;225047;1276;24215;-77
2023/07/17 13:51:12;;;;;;;10.00;8.40;;;;;;;24.36;76.97;98892.16;224868;1272;22913;-75
2023/07/17 13:56:23;;;;;;;9.60;8.80;;;;;;;24.87;77.22;98887.10;225162;1270;22546;-75
2023/07/17 14:01:29;;;;;;;9.10;8.20;;;;;;;25.34;76.28;98889.38;225261;1275;24470;-76
2023/07/17 14:06:32;;;;;;;8.90;8.10;;;;;;;25.39;74.69;98885.21;225197;1278;22549;-75
2023/07/17 14:11:47;;;;;;;9.30;8.40;;;;;;;25.59;75.34;98888.08;225408;1280;23154;-76
2023/07/17 14:17:21;;;;;;;9.20;8.20;;;;;;;25.88;74.62;98887.23;225485;1280;24225;-77
2023/07/17 14:22:23;;;;;;;8.40;7.60;;;;;;;26.04;73.79;98884.91;225847;1276;22543;-77
2023/07/17 14:27:30;;;;;;;8.90;8.20;;;;;;;26.03;73.64;98881.08;225871;1280;22592;-77
2023/07/17 14:32:46;;;;;;;13.40;9.70;;;;;;;25.98;73.43;98883.55;225817;1270;22546;-76
2023/07/17 14:37:49;;;;;;;8.90;8.20;;;;;;;25.85;73.44;98879.23;225845;1274;23799;-76
2023/07/17 14:43:01;;;;;;;8.90;8.00;;;;;;;25.81;73.83;98871.98;225830;1280;22540;-76
2023/07/17 14:48:06;;;;;;;9.10;8.30;;;;;;;25.78;74.05;98865.95;225787;1280;22550;-76
2023/07/17 14:53:12;;;;;;;9.70;8.90;;;;;;;25.56;73.61;98873.69;225780;1279;22534;-77
2023/07/17 14:58:40;;;;;;;9.10;7.80;;;;;;;25.23;73.71;98873.55;225828;1280;22531;-77
2023/07/17 15:03:48;;;;;;;14.50;8.30;;;;;;;25.01;74.49;98870.45;225773;1275;22555;-77
2023/07/17 15:09:20;;;;;;;8.60;7.80;;;;;;;24.87;74.52;98860.12;225874;1280;22564;-76
2023/07/17 15:14:42;;;;;;;8.30;7.50;;;;;;;24.77;74.51;98854.19;225918;1267;22571;-77
2023/07/17 15:20:09;;;;;;;8.40;7.30;;;;;;;24.85;74.56;98845.85;225782;1278;22622;-76
2023/07/17 15:25:20;;;;;;;7.80;6.30;;;;;;;25.07;74.60;98834.88;225846;1280;22571;-76
2023/07/17 15:30:32;;;;;;;7.00;6.50;;;;;;;25.25;74.34;98825.50;225700;1280;22549;-77
2023/07/17 15:35:53;;;;;;;7.30;6.60;;;;;;;25.59;74.61;98813.58;225947;1257;25346;-76
2023/07/17 15:40:59;;;;;;;6.60;6.10;;;;;;;25.90;73.83;98806.16;225905;1276;22550;-77
2023/07/17 15:46:02;;;;;;;6.90;6.30;;;;;;;26.08;73.51;98798.02;225806;1278;22559;-77
2023/07/17 15:51:05;;;;;;;7.20;6.50;;;;;;;26.33;73.40;98793.37;225828;1278;22531;-76
2023/07/17 15:56:08;;;;;;;7.10;6.20;;;;;;;26.42;72.35;98791.14;225855;1276;22571;-77
2023/07/17 16:01:17;;;;;;;6.80;6.20;;;;;;;26.46;72.23;98789.96;225684;1280;22548;-76
2023/07/17 16:06:29;;;;;;;7.20;6.50;;;;;;;26.44;72.07;98798.70;225834;1280;22566;-76
2023/07/17 16:11:44;;;;;;;7.60;6.80;;;;;;;26.48;72.42;98795.20;225814;1275;24349;-77
2023/07/17 16:16:47;;;;;;;6.90;6.20;;;;;;;26.52;72.14;98780.46;225810;1280;22551;-76
2023/07/17 16:21:55;;;;;;;7.00;6.40;;;;;;;26.45;71.63;98772.73;225841;1280;22627;-76
2023/07/17 16:27:00;;;;;;;6.90;6.20;;;;;;;26.26;71.64;98767.77;225863;1273;22539;-76
2023/07/17 16:32:12;;;;;;;6.60;5.90;;;;;;;26.12;71.59;98756.02;225864;1280;22531;-76
2023/07/17 16:37:21;;;;;;;6.90;6.30;;;;;;;25.97;71.36;98742.28;225842;1276;22530;-77
2023/07/17 16:42:32;;;;;;;6.70;6.10;;;;;;;25.91;71.59;98747.98;225709;1280;22629;-76
2023/07/17 16:47:34;;;;;;;6.70;5.70;;;;;;;26.03;71.73;98763.44;225658;1280;22556;-77
2023/07/17 16:52:37;;;;;;;6.10;5.60;;;;;;;25.91;70.95;98784.14;225843;1280;22835;-76
2023/07/17 16:57:42;;;;;;;5.60;5.10;;;;;;;25.75;71.63;98789.15;225806;1280;24225;-76
2023/07/17 17:02:44;;;;;;;5.40;5.00;;;;;;;25.65;71.71;98787.84;225851;1274;25342;-77
2023/07/17 17:07:50;;;;;;;5.40;5.00;;;;;;;25.64;71.67;98773.29;225862;1280;22548;-76
2023/07/17 17:12:53;;;;;;;5.60;5.10;;;;;;;25.56;71.68;98774.52;225847;1278;22630;-76
2023/07/17 17:17:58;;;;;;;5.80;5.40;;;;;;;25.66;72.22;98779.32;225710;1280;25316;-76
2023/07/17 17:23:10;;;;;;;5.60;5.10;;;;;;;26.02;72.45;98778.94;225859;1278;22531;-77
2023/07/17 17:28:14;;;;;;;6.50;5.90;;;;;;;27.04;72.25;98776.86;225896;1275;22487;-76
2023/07/17 17:33:18;;;;;;;5.50;5.10;;;;;;;27.17;69.66;98787.96;225927;1280;22546;-77
2023/07/17 17:38:24;;;;;;;5.40;5.00;;;;;;;26.98;69.78;98782.63;225925;1276;22456;-77
2023/07/17 17:44:03;;;;;;;6.10;5.50;;;;;;;26.82;69.54;98797.52;225736;1280;22539;-76
2023/07/17 17:49:17;;;;;;;6.10;5.70;;;;;;;26.39;69.06;98845.80;225890;1276;22554;-76
2023/07/17 17:54:26;;;;;;;6.10;5.60;;;;;;;25.76;69.12;98837.73;225914;1278;22568;-76
2023/07/17 17:59:29;;;;;;;6.60;6.10;;;;;;;25.29;69.64;98836.23;225910;1277;22551;-77
2023/07/17 18:04:31;;;;;;;7.60;7.00;;;;;;;24.93;70.42;98825.06;225913;1278;25344;-76
2023/07/17 18:09:34;;;;;;;7.70;7.00;;;;;;;24.59;70.97;98814.27;225781;1275;22490;-77
2023/07/17 18:14:36;;;;;;;7.90;6.80;;;;;;;24.28;71.50;98814.35;225813;1275;22567;-81
2023/07/17 18:19:39;;;;;;;7.90;7.10;;;;;;;24.04;72.15;98802.00;225759;1278;205407;-76
2023/07/17 18:24:41;;;;;;;7.60;7.00;;;;;;;23.75;72.42;98800.35;225973;1280;22571;-80
2023/07/17 18:29:45;;;;;;;7.70;7.00;;;;;;;23.49;73.03;98801.44;225882;1280;22573;-75
2023/07/17 18:34:47;;;;;;;7.30;6.70;;;;;;;23.28;73.69;98794.65;225913;1280;25250;-76
2023/07/17 18:39:49;;;;;;;7.50;6.90;;;;;;;23.11;74.04;98784.20;225876;1280;22547;-77
2023/07/17 18:44:51;;;;;;;7.90;7.20;;;;;;;22.94;74.37;98777.88;225869;1257;24231;-76
2023/07/17 18:50:13;;;;;;;9.90;8.90;;;;;;;22.75;74.78;98776.32;225763;1271;22548;-76
2023/07/17 18:55:16;;;;;;;8.40;7.60;;;;;;;22.54;75.30;98778.74;225213;1284;22750;-76
2023/07/17 19:00:20;;;;;;;9.00;8.20;;;;;;;22.33;75.73;98779.82;225145;1284;22950;-75
2023/07/17 19:05:25;;;;;;;9.30;8.40;;;;;;;22.16;76.16;98788.41;225257;1284;22540;-75
2023/07/17 19:10:28;;;;;;;9.00;8.10;;;;;;;22.01;76.76;98784.37;225228;1283;22542;-77
2023/07/17 19:15:32;;;;;;;9.50;8.60;;;;;;;21.88;77.29;98779.42;225198;1283;22667;-77
2023/07/17 19:20:38;;;;;;;10.00;9.00;;;;;;;21.75;77.64;98787.44;225332;1281;22547;-75
2023/07/17 19:25:40;;;;;;;9.70;8.80;;;;;;;21.62;78.07;98790.63;225625;1280;22539;-76
2023/07/17 19:31:40;;;;;;;12.40;11.00;;;;;;;21.49;78.42;98789.80;225707;1281;22567;-76
2023/07/17 19:37:03;;;;;;;11.60;10.40;;;;;;;21.36;78.92;98790.12;225575;1260;22560;-76
2023/07/17 19:42:17;;;;;;;;;;;;;;;;;;;;;
2023/07/17 19:48:04;;;;;;;14.60;11.70;;;;;;;21.15;79.99;98802.08;225553;1282;22564;-77
2023/07/17 19:53:41;;;;;;;14.10;12.80;;;;;;;21.07;80.51;98802.21;225382;1281;24232;-75
2023/07/17 19:58:43;;;;;;;12.70;11.60;;;;;;;20.99;80.87;98805.80;225373;1283;24315;-75
2023/07/17 20:04:13;;;;;;;14.60;13.20;;;;;;;20.91;81.25;98805.08;225501;1278;25335;-75
2023/07/17 20:09:35;;;;;;;13.90;12.40;;;;;;;20.80;81.58;98803.68;225476;1282;22540;-75
2023/07/17 20:26:08;;;;;;;15.80;14.30;;;;;;;20.51;83.16;98812.88;225952;1280;22658;-76
2023/07/17 20:31:30;;;;;;;15.30;13.60;;;;;;;20.43;83.42;98817.04;226006;1278;22536;-77
2023/07/17 20:36:32;;;;;;;15.80;14.20;;;;;;;20.36;83.67;98824.07;225421;1278;22542;-76
2023/07/17 20:41:35;;;;;;;17.20;15.60;;;;;;;20.33;83.81;98824.88;225474;1279;22561;-76
2023/07/17 20:46:55;;;;;;;16.60;15.00;;;;;;;20.28;84.20;98834.70;225388;1266;22575;-76
2023/07/17 20:51:57;;;;;;;15.70;14.10;;;;;;;20.23;84.65;98833.17;225342;1283;22543;-76
2023/07/17 20:57:06;;;;;;;17.20;15.50;;;;;;;20.17;84.79;98831.65;225494;1279;22575;-77
2023/07/17 21:02:08;;;;;;;16.50;14.80;;;;;;;20.10;85.00;98832.30;225382;1281;23323;-76
2023/07/17 21:07:54;;;;;;;16.30;14.70;;;;;;;20.01;85.22;98828.64;225832;1280;22548;-76
2023/07/17 21:13:23;;;;;;;16.40;14.70;;;;;;;19.90;85.43;98824.80;225999;1280;22546;-76
2023/07/17 21:18:32;;;;;;;18.50;16.70;;;;;;;19.82;85.59;98823.17;225878;1280;22640;-76
2023/07/17 21:23:37;;;;;;;18.90;17.10;;;;;;;19.75;85.85;98827.48;225928;1280;22587;-76
2023/07/17 21:30:06;;;;;;;20.20;18.40;;;;;;;19.68;86.09;98828.07;225991;1280;22541;-75
2023/07/17 21:35:30;;;;;;;21.50;19.30;;;;;;;19.61;86.22;98832.62;225919;1280;22559;-76
2023/07/17 21:41:24;;;;;;;22.90;20.60;;;;;;;19.55;86.45;98834.42;225928;1272;22543;-75
2023/07/17 21:46:47;;;;;;;22.80;20.40;;;;;;;19.49;86.74;98839.48;226023;1280;22560;-76
2023/07/17 21:52:00;;;;;;;23.10;20.60;;;;;;;19.44;86.84;98842.36;225899;1262;22530;-75
2023/07/17 21:58:44;;;;;;;24.10;21.80;;;;;;;19.40;87.04;98842.23;225916;1267;22550;-75
2023/07/17 22:04:18;;;;;;;25.60;22.90;;;;;;;19.37;87.38;98839.25;225968;1279;24209;-76
2023/07/17 22:09:23;;;;;;;26.60;24.00;;;;;;;19.34;87.36;98839.30;225983;1280;22610;-76
2023/07/17 22:15:16;;;;;;;26.00;23.40;;;;;;;19.31;87.41;98843.10;225841;1280;25259;-76
2023/07/17 22:20:27;;;;;;;26.80;24.00;;;;;;;19.27;87.58;98834.10;225969;1277;22539;-76
2023/07/17 22:25:59;;;;;;;25.70;22.90;;;;;;;19.22;87.68;98840.66;225899;1278;22705;-76
2023/07/17 22:31:04;;;;;;;25.80;23.20;;;;;;;19.18;87.82;98840.10;225862;1280;22543;-75
2023/07/17 22:36:44;;;;;;;26.00;23.50;;;;;;;19.13;88.02;98841.21;225993;1280;22552;-75
2023/07/17 22:42:21;;;;;;;25.70;23.00;;;;;;;19.10;88.19;98845.33;225874;1278;22543;-76
2023/07/17 22:48:21;;;;;;;24.40;22.00;;;;;;;19.07;88.50;98852.48;225361;1283;22562;-75
2023/07/17 22:53:26;;;;;;;23.60;21.10;;;;;;;19.04;88.56;98847.73;225367;1281;23058;-76
2023/07/17 22:59:43;;;;;;;;;;;;;;;;;;;;;
2023/07/17 23:04:58;;;;;;;22.70;20.50;;;;;;;18.95;88.83;98837.95;225459;1278;22536;-75
2023/07/17 23:11:16;;;;;;;24.20;21.70;;;;;;;18.92;88.91;98838.41;225376;1283;22689;-75
2023/07/17 23:23:17;;;;;;;25.70;23.10;;;;;;;18.83;89.24;98845.44;225914;1280;22546;-75
2023/07/17 23:28:35;;;;;;;24.30;21.80;;;;;;;18.80;89.42;98852.27;225875;1280;22537;-75
2023/07/17 23:34:41;;;;;;;23.30;21.00;;;;;;;18.76;89.55;98853.16;225904;1279;22527;-75
2023/07/17 23:41:08;;;;;;;24.20;21.70;;;;;;;18.73;89.73;98852.11;225919;1280;22528;-75
2023/07/17 23:54:36;;;;;;;24.80;22.40;;;;;;;18.66;90.08;98852.39;225252;1283;24347;-75
